Time;durP1;ratioP1;P1;durP2;ratioP2;P2;SDS_P1;SDS_P2;PMS_P1;PMS_P2;Temp;Humidity;BMP_temperature;BMP_pressure;BME280_temperature;BME280_humidity;BME280_pressure;Samples;Min_cycle;Max_cycle;Signal;HPM_P1;HPM_P2
2023/01/02 00:01:37;;;;;;;26.27;14.18;;;9.90;99.90;;;;;;5011075;28;20445;-66
2023/01/02 00:04:02;;;;;;;29.42;15.23;;;10.00;99.90;;;;;;5011789;28;20042;-65
2023/01/02 00:06:33;;;;;;;37.50;17.00;;;10.10;99.90;;;;;;5006611;28;20517;-65
2023/01/02 00:08:58;;;;;;;37.55;17.50;;;10.00;99.90;;;;;;5006033;28;20084;-67
2023/01/02 00:11:24;;;;;;;33.72;16.67;;;9.90;99.90;;;;;;5023777;28;20133;-64
2023/01/02 00:13:50;;;;;;;42.85;18.60;;;10.00;99.90;;;;;;5017497;28;20405;-65
2023/01/02 00:16:15;;;;;;;44.47;18.00;;;10.10;99.90;;;;;;5015019;28;20037;-65
2023/01/02 00:18:41;;;;;;;39.15;18.10;;;10.10;99.90;;;;;;5027697;28;20029;-65
2023/01/02 00:21:06;;;;;;;45.40;19.75;;;10.20;99.90;;;;;;5017127;28;20043;-65
2023/01/02 00:23:32;;;;;;;54.53;20.77;;;10.00;99.90;;;;;;5024330;28;20071;-65
2023/01/02 00:25:58;;;;;;;50.83;19.00;;;10.00;99.90;;;;;;5020562;28;20073;-64
2023/01/02 00:28:24;;;;;;;49.05;19.17;;;10.10;99.90;;;;;;5022897;28;20046;-63
2023/01/02 00:30:49;;;;;;;44.78;19.17;;;9.90;99.90;;;;;;5017197;28;20034;-64
2023/01/02 00:33:15;;;;;;;40.53;18.73;;;10.10;99.90;;;;;;5021476;28;20183;-65
2023/01/02 00:35:41;;;;;;;46.80;18.98;;;10.10;99.90;;;;;;5012251;28;20100;-67
2023/01/02 00:38:07;;;;;;;45.03;19.15;;;10.10;99.90;;;;;;5019999;28;20128;-67
2023/01/02 00:40:33;;;;;;;43.35;19.25;;;10.00;99.90;;;;;;5024261;28;20043;-66
2023/01/02 00:42:59;;;;;;;85.10;25.27;;;10.10;99.90;;;;;;5016671;28;20397;-65
2023/01/02 00:45:25;;;;;;;49.83;20.60;;;10.00;99.90;;;;;;5033528;28;20053;-65
2023/01/02 00:47:50;;;;;;;56.92;22.30;;;10.20;99.90;;;;;;5029340;28;20065;-64
2023/01/02 00:50:16;;;;;;;43.22;21.33;;;10.00;99.90;;;;;;5022474;28;20445;-64
2023/01/02 00:52:41;;;;;;;57.47;21.52;;;10.10;99.90;;;;;;5018883;28;20041;-64
2023/01/02 00:55:07;;;;;;;51.10;22.05;;;10.00;99.90;;;;;;5030106;28;20673;-65
2023/01/02 00:57:33;;;;;;;45.45;21.52;;;10.20;99.90;;;;;;5024353;28;20367;-65
2023/01/02 00:59:58;;;;;;;55.75;22.50;;;10.10;99.90;;;;;;5022620;28;20048;-65
2023/01/02 01:02:24;;;;;;;49.97;22.02;;;10.30;99.90;;;;;;5020740;28;20037;-64
2023/01/02 01:04:50;;;;;;;56.78;24.45;;;10.00;99.90;;;;;;5018865;28;20037;-64
2023/01/02 01:07:15;;;;;;;60.40;25.27;;;10.10;99.90;;;;;;5021850;28;20072;-65
2023/01/02 01:09:41;;;;;;;54.63;24.33;;;10.10;99.90;;;;;;5027363;28;20435;-64
2023/01/02 01:12:07;;;;;;;56.35;25.10;;;10.10;99.90;;;;;;5013606;28;20034;-66
2023/01/02 01:14:32;;;;;;;59.28;25.73;;;10.10;99.90;;;;;;5004097;28;20033;-65
2023/01/02 01:16:58;;;;;;;60.47;25.38;;;10.10;99.90;;;;;;5006852;28;20124;-64
2023/01/02 01:19:28;;;;;;;68.15;27.08;;;10.30;99.90;;;;;;5012482;28;20077;-64
2023/01/02 01:21:53;;;;;;;66.70;26.52;;;10.10;99.90;;;;;;5018290;28;20042;-64
2023/01/02 01:24:19;;;;;;;66.60;26.63;;;10.20;99.90;;;;;;5005167;28;20053;-65
2023/01/02 01:26:44;;;;;;;63.67;25.65;;;10.30;99.90;;;;;;5010565;28;20041;-64
2023/01/02 01:29:10;;;;;;;61.33;26.20;;;10.30;99.90;;;;;;5008677;28;20083;-64
2023/01/02 01:31:36;;;;;;;60.88;25.73;;;10.20;99.90;;;;;;5006843;28;20180;-66
2023/01/02 01:34:01;;;;;;;63.63;25.83;;;10.20;99.90;;;;;;5009244;28;20398;-64
2023/01/02 01:36:27;;;;;;;58.83;25.75;;;10.50;99.90;;;;;;5025150;28;20045;-65
2023/01/02 01:38:52;;;;;;;75.50;26.50;;;10.30;99.90;;;;;;5025533;28;20073;-64
2023/01/02 01:41:21;;;;;;;70.95;26.42;;;10.40;99.90;;;;;;5030359;28;20131;-66
2023/01/02 01:43:51;;;;;;;61.50;26.17;;;10.40;99.90;;;;;;5023062;28;21309;-63
2023/01/02 01:46:32;;;;;;;54.22;25.15;;;10.40;99.90;;;;;;5029248;28;20048;-65
2023/01/02 01:49:01;;;;;;;59.10;25.48;;;10.40;99.90;;;;;;5028627;28;20045;-64
2023/01/02 01:51:28;;;;;;;60.45;25.42;;;10.40;99.90;;;;;;5029455;28;20088;-65
2023/01/02 01:54:01;;;;;;;56.75;24.58;;;10.30;99.90;;;;;;5026950;28;20050;-65
2023/01/02 01:56:27;;;;;;;58.88;24.60;;;10.40;99.90;;;;;;5028922;28;22971;-65
2023/01/02 01:58:53;;;;;;;57.72;23.80;;;10.50;99.90;;;;;;5026554;28;20378;-66
2023/01/02 02:01:18;;;;;;;60.75;24.00;;;10.50;99.90;;;;;;5021892;28;20041;-64
2023/01/02 02:03:47;;;;;;;52.08;24.17;;;10.50;99.90;;;;;;5009405;28;20056;-66
2023/01/02 02:06:12;;;;;;;73.15;25.83;;;10.50;99.90;;;;;;5019533;28;20374;-64
2023/01/02 02:08:53;;;;;;;49.22;21.17;;;10.40;99.90;;;;;;5018563;28;20099;-64
2023/01/02 02:11:20;;;;;;;47.03;20.75;;;10.50;99.90;;;;;;5018630;28;20045;-64
2023/01/02 02:13:47;;;;;;;42.78;20.33;;;10.60;99.90;;;;;;5020010;28;20124;-64
2023/01/02 02:16:15;;;;;;;45.47;20.90;;;10.60;99.90;;;;;;5030497;28;20052;-64
2023/01/02 02:19:37;;;;;;;43.47;19.20;;;10.60;99.90;;;;;;5024110;28;20069;-64
2023/01/02 02:22:29;;;;;;;44.00;19.58;;;10.60;99.90;;;;;;5004956;28;20042;-64
2023/01/02 02:25:13;;;;;;;45.17;19.23;;;10.50;99.90;;;;;;5019502;28;20030;-63
2023/01/02 02:28:13;;;;;;;44.05;18.38;;;10.60;99.90;;;;;;5021434;28;20045;-64
2023/01/02 02:31:06;;;;;;;42.58;19.23;;;10.50;99.90;;;;;;5022672;28;20033;-64
2023/01/02 02:33:36;;;;;;;43.70;18.70;;;10.60;99.90;;;;;;5016130;28;20056;-64
2023/01/02 02:36:06;;;;;;;47.13;19.60;;;10.60;99.90;;;;;;5022269;28;20041;-66
2023/01/02 02:39:10;;;;;;;45.67;19.38;;;10.60;99.90;;;;;;5017794;28;20636;-64
2023/01/02 02:42:11;;;;;;;40.90;19.70;;;10.70;99.90;;;;;;5017259;28;20041;-66
2023/01/02 02:44:52;;;;;;;44.75;18.65;;;10.60;99.90;;;;;;5017485;28;20065;-63
2023/01/02 02:47:32;;;;;;;41.67;17.92;;;10.60;99.90;;;;;;5020740;28;20034;-63
2023/01/02 02:50:02;;;;;;;39.38;17.35;;;10.60;99.90;;;;;;5022388;28;20061;-66
2023/01/02 02:52:33;;;;;;;39.03;17.15;;;10.50;99.90;;;;;;5020876;28;20088;-64
2023/01/02 02:55:02;;;;;;;35.63;15.75;;;10.70;99.90;;;;;;5027471;28;20044;-64
2023/01/02 02:57:29;;;;;;;43.15;18.13;;;10.70;99.90;;;;;;5026899;28;20445;-64
2023/01/02 02:59:55;;;;;;;44.80;17.63;;;10.60;99.90;;;;;;5020743;28;20046;-66
2023/01/02 03:02:21;;;;;;;45.33;17.98;;;10.70;99.90;;;;;;5020512;28;20050;-64
2023/01/02 03:04:56;;;;;;;39.65;16.50;;;10.70;99.90;;;;;;5011540;28;20033;-65
2023/01/02 03:07:28;;;;;;;40.53;18.17;;;10.70;99.90;;;;;;5008393;28;22611;-64
2023/01/02 03:10:13;;;;;;;41.53;16.48;;;10.50;99.90;;;;;;5005633;28;20042;-65
2023/01/02 03:13:01;;;;;;;38.33;16.25;;;10.50;99.90;;;;;;5005694;28;20030;-64
2023/01/02 03:15:41;;;;;;;46.75;17.85;;;10.40;99.90;;;;;;5007858;28;20038;-64
2023/01/02 03:18:20;;;;;;;41.95;17.10;;;10.40;99.90;;;;;;5004871;28;20042;-66
2023/01/02 03:21:09;;;;;;;33.78;14.70;;;10.50;99.90;;;;;;5004753;28;20038;-65
2023/01/02 03:23:42;;;;;;;32.08;15.13;;;10.70;99.90;;;;;;5004999;28;20406;-66
2023/01/02 03:26:08;;;;;;;35.10;14.45;;;10.60;99.90;;;;;;5005874;28;20030;-63
2023/01/02 03:28:38;;;;;;;33.08;14.73;;;10.60;99.90;;;;;;5014615;28;20489;-64
2023/01/02 03:31:07;;;;;;;43.22;16.05;;;10.60;99.90;;;;;;5004830;28;20065;-66
2023/01/02 03:33:39;;;;;;;37.83;14.65;;;10.60;99.90;;;;;;5005358;28;20137;-65
2023/01/02 03:36:17;;;;;;;29.85;13.80;;;10.80;99.90;;;;;;5018239;28;20045;-63
2023/01/02 03:38:54;;;;;;;34.95;14.85;;;10.70;99.90;;;;;;5007777;28;20042;-65
2023/01/02 03:41:25;;;;;;;30.25;14.15;;;10.60;99.90;;;;;;5017469;28;20529;-63
2023/01/02 03:43:53;;;;;;;28.25;13.43;;;10.60;99.90;;;;;;5022061;28;20037;-64
2023/01/02 03:47:00;;;;;;;31.67;13.52;;;10.60;99.90;;;;;;5024558;28;20069;-64
2023/01/02 03:49:32;;;;;;;29.30;13.65;;;10.90;99.90;;;;;;4972952;28;20042;-64
2023/01/02 03:51:58;;;;;;;30.30;13.90;;;10.60;99.90;;;;;;5016344;28;20119;-64
2023/01/02 03:54:25;;;;;;;32.75;14.57;;;10.80;99.90;;;;;;5018841;28;20053;-65
2023/01/02 03:57:28;;;;;;;34.17;13.77;;;10.80;99.90;;;;;;5022445;28;20060;-64
2023/01/02 03:59:54;;;;;;;32.72;13.48;;;10.80;99.90;;;;;;5022820;28;20060;-65
2023/01/02 04:02:50;;;;;;;32.97;14.52;;;10.60;99.90;;;;;;5023711;28;20045;-64
2023/01/02 04:05:31;;;;;;;33.63;14.23;;;10.70;99.90;;;;;;5012678;28;20041;-65
2023/01/02 04:08:15;;;;;;;34.45;14.63;;;10.60;99.90;;;;;;5010435;28;20057;-66
2023/01/02 04:10:44;;;;;;;32.38;14.25;;;10.70;99.90;;;;;;5013474;28;20038;-63
2023/01/02 04:13:20;;;;;;;29.02;13.77;;;10.80;99.90;;;;;;5016040;28;20088;-65
2023/01/02 04:15:48;;;;;;;33.92;13.02;;;10.60;99.90;;;;;;5035488;28;20143;-63
2023/01/02 04:18:28;;;;;;;31.27;13.60;;;10.80;99.90;;;;;;5025951;28;20040;-64
2023/01/02 04:20:58;;;;;;;24.73;13.30;;;10.70;99.90;;;;;;5018087;28;20069;-64
2023/01/02 04:23:47;;;;;;;36.20;14.23;;;10.80;99.90;;;;;;5018627;28;20529;-64
2023/01/02 04:26:30;;;;;;;28.42;13.57;;;10.80;99.90;;;;;;5012017;28;20132;-63
2023/01/02 04:28:55;;;;;;;26.65;12.95;;;10.90;99.90;;;;;;5016967;28;20050;-65
2023/01/02 04:31:42;;;;;;;29.77;13.43;;;10.70;99.90;;;;;;5026398;28;20519;-64
2023/01/02 04:34:12;;;;;;;27.95;12.65;;;10.80;99.90;;;;;;5024422;28;20490;-63
2023/01/02 04:36:39;;;;;;;32.00;13.80;;;10.90;99.90;;;;;;5022413;28;20102;-65
2023/01/02 04:39:05;;;;;;;26.38;13.52;;;11.00;99.90;;;;;;5018330;28;20297;-65
2023/01/02 04:41:32;;;;;;;29.95;13.07;;;11.00;99.90;;;;;;5014687;28;20045;-64
2023/01/02 04:43:58;;;;;;;28.55;12.82;;;10.90;99.90;;;;;;5020651;28;20044;-64
2023/01/02 04:46:25;;;;;;;28.35;12.65;;;10.90;99.90;;;;;;5022409;28;20042;-64
2023/01/02 04:48:51;;;;;;;30.10;13.05;;;11.00;99.90;;;;;;5020063;28;20595;-63
2023/01/02 04:51:17;;;;;;;29.85;12.85;;;11.00;99.90;;;;;;5025094;28;20038;-64
2023/01/02 04:53:45;;;;;;;27.15;12.60;;;11.00;99.90;;;;;;5019620;28;20034;-65
2023/01/02 04:56:11;;;;;;;27.38;13.13;;;10.90;99.90;;;;;;5023755;28;20049;-65
2023/01/02 04:58:36;;;;;;;25.45;12.13;;;10.80;99.90;;;;;;5023104;28;20492;-65
2023/01/02 05:01:11;;;;;;;28.70;12.05;;;10.90;99.90;;;;;;5023796;28;20493;-64
2023/01/02 05:03:41;;;;;;;29.23;11.98;;;11.10;99.90;;;;;;5020993;28;20054;-64
2023/01/02 05:06:07;;;;;;;;;;;11.00;99.90;;;;;;5018223;28;20045;-63
2023/01/02 05:08:33;;;;;;;27.88;12.73;;;10.90;99.90;;;;;;5010270;28;20301;-65
2023/01/02 05:11:16;;;;;;;27.60;12.38;;;11.20;99.90;;;;;;5006699;28;20100;-65
2023/01/02 05:13:41;;;;;;;26.67;11.98;;;10.90;99.90;;;;;;5021488;28;20042;-64
2023/01/02 05:16:08;;;;;;;24.98;10.82;;;11.20;99.90;;;;;;5005253;28;20037;-64
2023/01/02 05:18:34;;;;;;;25.77;11.95;;;10.90;99.90;;;;;;5007344;28;20144;-65
2023/01/02 05:23:56;;;;;;;26.88;11.68;;;11.20;99.90;;;;;;5007308;28;20383;-64
2023/01/02 05:26:22;;;;;;;26.17;12.82;;;11.10;99.90;;;;;;5018310;28;20033;-64
2023/01/02 05:28:48;;;;;;;29.13;12.10;;;11.00;99.90;;;;;;5015517;28;20171;-64
2023/01/02 05:31:13;;;;;;;30.65;13.05;;;11.00;99.90;;;;;;5008753;28;20053;-64
2023/01/02 05:33:39;;;;;;;28.45;11.75;;;11.00;99.90;;;;;;5018425;28;20053;-66
2023/01/02 05:36:06;;;;;;;23.60;11.73;;;11.10;99.90;;;;;;5012762;28;20037;-62
2023/01/02 05:38:32;;;;;;;26.80;10.82;;;11.20;99.90;;;;;;5015579;28;20060;-63
2023/01/02 05:41:03;;;;;;;25.13;11.18;;;11.20;99.90;;;;;;5022851;28;20033;-64
2023/01/02 05:43:33;;;;;;;28.30;12.38;;;11.30;99.90;;;;;;5019405;28;20033;-63
2023/01/02 05:46:12;;;;;;;27.73;11.80;;;11.30;99.90;;;;;;5026426;28;20512;-65
2023/01/02 05:48:39;;;;;;;29.67;12.18;;;11.20;99.90;;;;;;5024138;28;20045;-64
2023/01/02 05:51:07;;;;;;;27.02;11.70;;;11.20;99.90;;;;;;5030176;28;20069;-65
2023/01/02 05:53:32;;;;;;;29.63;11.50;;;11.30;99.90;;;;;;5025302;28;20063;-63
2023/01/02 05:56:07;;;;;;;25.52;11.32;;;11.30;99.90;;;;;;5024914;28;20053;-64
2023/01/02 05:58:34;;;;;;;23.02;11.43;;;11.10;99.90;;;;;;4998975;28;20124;-63
2023/01/02 06:01:05;;;;;;;27.75;11.40;;;11.10;99.90;;;;;;5022128;28;20062;-64
2023/01/02 06:03:31;;;;;;;;;;;11.40;99.90;;;;;;5023164;28;20096;-64
2023/01/02 06:05:56;;;;;;;26.52;11.35;;;11.10;99.90;;;;;;5028178;28;19921;-64
2023/01/02 06:08:22;;;;;;;21.63;11.10;;;11.40;99.90;;;;;;5020608;28;20033;-64
2023/01/02 06:10:50;;;;;;;24.30;11.93;;;11.10;99.90;;;;;;5020518;28;20056;-65
2023/01/02 06:13:16;;;;;;;27.55;11.00;;;11.30;99.90;;;;;;5023122;28;20481;-64
2023/01/02 06:15:42;;;;;;;29.02;12.45;;;11.30;99.90;;;;;;5025872;28;20085;-64
2023/01/02 06:18:07;;;;;;;30.70;12.60;;;11.40;99.90;;;;;;5025151;28;20095;-64
2023/01/02 06:20:33;;;;;;;24.55;11.25;;;11.20;99.90;;;;;;5019850;28;20030;-64
2023/01/02 06:22:58;;;;;;;26.13;11.48;;;11.20;99.90;;;;;;5018368;28;20116;-63
2023/01/02 06:25:24;;;;;;;29.13;11.35;;;11.30;99.90;;;;;;5018323;28;20478;-64
2023/01/02 06:27:49;;;;;;;24.42;11.38;;;11.20;99.90;;;;;;5017686;28;20087;-63
2023/01/02 06:30:15;;;;;;;21.73;10.52;;;11.30;99.90;;;;;;5021385;28;20045;-64
2023/01/02 06:32:40;;;;;;;26.02;11.65;;;11.30;99.90;;;;;;5022348;28;20128;-65
2023/01/02 06:35:06;;;;;;;24.35;10.52;;;11.10;99.90;;;;;;5024117;28;20041;-64
2023/01/02 06:37:32;;;;;;;22.83;10.43;;;11.20;99.90;;;;;;5017565;28;20069;-63
2023/01/02 06:39:57;;;;;;;24.65;10.65;;;11.20;99.90;;;;;;5017878;28;20109;-64
2023/01/02 06:42:23;;;;;;;23.35;10.73;;;11.40;99.90;;;;;;5023470;28;20029;-63
2023/01/02 06:44:48;;;;;;;23.52;10.93;;;11.30;99.90;;;;;;5025025;28;20037;-64
2023/01/02 06:47:14;;;;;;;24.17;11.02;;;11.30;99.90;;;;;;5023211;28;20041;-64
2023/01/02 06:49:39;;;;;;;25.38;10.77;;;11.30;99.90;;;;;;5018301;28;20046;-63
2023/01/02 06:52:05;;;;;;;25.23;10.60;;;11.20;99.90;;;;;;5012770;28;20046;-63
2023/01/02 06:54:31;;;;;;;22.13;11.20;;;11.40;99.90;;;;;;5016885;28;20038;-63
2023/01/02 06:56:57;;;;;;;25.65;10.23;;;11.20;99.90;;;;;;5017325;28;20061;-63
2023/01/02 06:59:23;;;;;;;24.15;10.25;;;11.30;99.90;;;;;;5024153;28;20416;-63
2023/01/02 07:01:48;;;;;;;27.33;11.20;;;11.30;99.90;;;;;;5016374;28;20041;-63
2023/01/02 07:04:17;;;;;;;18.50;10.00;;;11.40;99.90;;;;;;5013054;28;20045;-63
2023/01/02 07:06:42;;;;;;;26.73;10.45;;;11.20;99.90;;;;;;5004245;28;20038;-64
2023/01/02 07:09:08;;;;;;;23.50;10.88;;;11.40;99.90;;;;;;5008976;28;20051;-63
2023/01/02 07:11:34;;;;;;;31.33;11.70;;;11.30;99.90;;;;;;5020677;28;20041;-63
2023/01/02 07:14:00;;;;;;;22.65;10.35;;;11.50;99.90;;;;;;5010396;28;20049;-64
2023/01/02 07:16:26;;;;;;;20.77;10.25;;;11.40;99.90;;;;;;5010971;28;20547;-64
2023/01/02 07:18:52;;;;;;;25.33;10.82;;;11.20;99.90;;;;;;5017254;28;20049;-63
2023/01/02 07:21:18;;;;;;;21.70;8.90;;;11.50;99.90;;;;;;5008583;28;20026;-65
2023/01/02 07:23:44;;;;;;;15.38;7.50;;;11.50;99.90;;;;;;5023605;28;20532;-66
2023/01/02 07:26:10;;;;;;;13.07;6.97;;;11.30;99.90;;;;;;5010961;28;20087;-67
2023/01/02 07:28:36;;;;;;;13.32;6.82;;;11.40;99.90;;;;;;5016989;28;20557;-66
2023/01/02 07:31:07;;;;;;;13.95;7.50;;;11.20;99.90;;;;;;5024355;28;20123;-66
2023/01/02 07:33:34;;;;;;;10.23;5.65;;;11.30;99.90;;;;;;5018328;28;20081;-66
2023/01/02 07:36:05;;;;;;;8.43;4.32;;;11.30;99.90;;;;;;5025110;28;20048;-66
2023/01/02 07:38:31;;;;;;;5.75;3.05;;;10.90;99.90;;;;;;5016520;28;20041;-67
2023/01/02 07:40:57;;;;;;;3.42;2.17;;;10.90;99.90;;;;;;5024403;28;20045;-66
2023/01/02 07:43:23;;;;;;;2.67;1.77;;;10.60;99.90;;;;;;5016344;28;20107;-67
2023/01/02 07:45:49;;;;;;;3.17;1.80;;;10.60;99.90;;;;;;5021130;28;20370;-67
2023/01/02 07:48:15;;;;;;;1.90;1.67;;;10.40;99.90;;;;;;5018724;28;20049;-67
2023/01/02 07:50:40;;;;;;;3.38;2.05;;;10.40;99.90;;;;;;5017513;28;20474;-66
2023/01/02 07:53:06;;;;;;;3.20;2.42;;;10.30;99.90;;;;;;5022821;28;20046;-67
2023/01/02 07:55:32;;;;;;;5.65;2.90;;;10.20;99.90;;;;;;5020951;28;20061;-67
2023/01/02 07:57:57;;;;;;;4.60;2.40;;;10.10;99.90;;;;;;5025936;28;20136;-67
2023/01/02 08:00:23;;;;;;;6.00;3.13;;;10.10;99.90;;;;;;5022674;28;20046;-67
2023/01/02 08:02:51;;;;;;;5.30;3.45;;;10.10;99.90;;;;;;5019710;28;20076;-66
2023/01/02 08:05:17;;;;;;;5.75;3.80;;;10.00;99.90;;;;;;5026291;28;20048;-65
2023/01/02 08:07:43;;;;;;;7.35;4.20;;;10.10;99.90;;;;;;5021096;28;20029;-65
2023/01/02 08:10:10;;;;;;;6.45;3.90;;;10.10;99.90;;;;;;5033595;28;20436;-67
2023/01/02 08:12:36;;;;;;;9.75;4.30;;;10.10;99.90;;;;;;5023266;28;20038;-66
2023/01/02 08:15:01;;;;;;;10.38;4.90;;;10.00;99.90;;;;;;5022574;28;21995;-67
2023/01/02 08:17:29;;;;;;;17.98;9.05;;;10.00;99.90;;;;;;5029561;28;20037;-66
2023/01/02 08:19:54;;;;;;;26.50;19.23;;;10.00;99.90;;;;;;5020523;28;20045;-67
2023/01/02 08:22:20;;;;;;;20.17;9.60;;;10.00;99.90;;;;;;5029574;28;20677;-67
2023/01/02 08:24:45;;;;;;;16.65;10.18;;;9.90;99.90;;;;;;5018991;28;20049;-66
2023/01/02 08:27:11;;;;;;;15.27;8.00;;;9.80;99.90;;;;;;5029952;28;20038;-65
2023/01/02 08:29:36;;;;;;;15.02;8.50;;;9.70;99.90;;;;;;5029592;28;20037;-66
2023/01/02 08:32:02;;;;;;;13.30;8.52;;;9.80;99.90;;;;;;5029647;28;20048;-66
2023/01/02 08:34:28;;;;;;;9.30;6.03;;;9.60;99.90;;;;;;5030405;28;20145;-65
2023/01/02 08:36:53;;;;;;;6.30;3.50;;;9.50;99.90;;;;;;5014826;28;22826;-66
2023/01/02 08:39:19;;;;;;;5.53;3.00;;;9.50;99.90;;;;;;5019593;28;20045;-65
2023/01/02 08:41:44;;;;;;;4.80;2.90;;;9.40;99.90;;;;;;5025266;28;20029;-66
2023/01/02 08:44:10;;;;;;;5.93;3.55;;;9.20;99.90;;;;;;5020520;28;20103;-65
2023/01/02 08:46:35;;;;;;;6.30;3.70;;;9.10;99.90;;;;;;5024543;28;20049;-66
2023/01/02 08:49:01;;;;;;;6.70;3.78;;;9.30;99.90;;;;;;5027542;28;20034;-66
2023/01/02 08:51:27;;;;;;;9.48;5.43;;;9.30;99.90;;;;;;5027927;28;20464;-65
2023/01/02 08:53:53;;;;;;;7.70;3.75;;;9.20;99.90;;;;;;5019870;28;20041;-65
2023/01/02 08:56:30;;;;;;;6.53;3.42;;;9.10;99.90;;;;;;5022891;28;20053;-66
2023/01/02 08:59:01;;;;;;;30.77;22.58;;;9.10;99.90;;;;;;5023180;28;20052;-66
2023/01/02 09:01:28;;;;;;;64.65;54.22;;;9.20;99.90;;;;;;5015887;28;20076;-65
2023/01/02 09:03:55;;;;;;;32.97;27.48;;;9.00;99.90;;;;;;5014804;28;20045;-65
2023/01/02 09:06:22;;;;;;;47.60;42.30;;;8.90;99.90;;;;;;5013459;28;20087;-65
2023/01/02 09:08:54;;;;;;;55.97;43.22;;;9.00;99.90;;;;;;5012110;28;20080;-66
2023/01/02 09:11:23;;;;;;;22.98;18.20;;;8.70;99.90;;;;;;5011294;28;20041;-65
2023/01/02 09:13:48;;;;;;;10.20;8.38;;;8.90;99.90;;;;;;5006904;28;20497;-65
2023/01/02 09:16:14;;;;;;;12.48;10.35;;;8.70;99.90;;;;;;5013509;28;20046;-65
2023/01/02 09:18:40;;;;;;;14.20;10.60;;;8.60;99.90;;;;;;5012915;28;20033;-65
2023/01/02 09:21:05;;;;;;;15.00;11.75;;;8.70;99.90;;;;;;5024437;28;20038;-65
2023/01/02 09:23:32;;;;;;;15.55;13.75;;;8.60;99.90;;;;;;5031030;28;20109;-67
2023/01/02 09:26:02;;;;;;;7.32;4.38;;;8.50;99.90;;;;;;5020171;28;20046;-65
2023/01/02 09:28:28;;;;;;;;;;;8.70;99.90;;;;;;5031391;28;20140;-65
2023/01/02 09:30:54;;;;;;;6.90;3.50;;;8.40;99.90;;;;;;5024065;28;20017;-65
2023/01/02 09:33:20;;;;;;;5.00;2.83;;;8.40;99.90;;;;;;5030649;28;20488;-65
2023/01/02 09:35:46;;;;;;;7.57;2.97;;;8.70;99.90;;;;;;5008341;28;20162;-66
2023/01/02 09:38:12;;;;;;;11.68;3.83;;;8.50;99.90;;;;;;5031310;28;20160;-65
2023/01/02 09:40:50;;;;;;;7.38;3.50;;;8.70;99.90;;;;;;5032621;28;20033;-65
2023/01/02 09:43:22;;;;;;;6.07;3.72;;;8.70;99.90;;;;;;5030740;28;20068;-66
2023/01/02 09:45:49;;;;;;;10.20;6.43;;;8.50;99.90;;;;;;5024688;28;20120;-66
2023/01/02 09:48:18;;;;;;;6.63;4.13;;;8.50;99.90;;;;;;5045092;28;20449;-65
2023/01/02 09:50:47;;;;;;;5.05;2.90;;;8.50;99.90;;;;;;5021786;28;20052;-66
2023/01/02 09:53:13;;;;;;;4.00;2.38;;;8.50;99.90;;;;;;5028729;28;20076;-65
2023/01/02 09:55:56;;;;;;;6.05;2.70;;;8.50;99.90;;;;;;5029168;28;20055;-66
2023/01/02 09:58:47;;;;;;;5.35;2.55;;;8.50;99.90;;;;;;5032169;28;20091;-65
2023/01/02 10:01:23;;;;;;;6.03;3.20;;;8.70;99.90;;;;;;5026131;28;20041;-66
2023/01/02 10:04:04;;;;;;;6.35;3.75;;;8.50;99.90;;;;;;5029773;28;20116;-65
2023/01/02 10:06:42;;;;;;;5.72;2.85;;;8.70;99.90;;;;;;5027207;28;20037;-65
2023/01/02 10:09:18;;;;;;;6.28;2.90;;;8.70;99.90;;;;;;5028477;28;20049;-64
2023/01/02 10:12:04;;;;;;;4.35;2.80;;;8.70;99.90;;;;;;5015370;28;20049;-65
2023/01/02 10:14:40;;;;;;;4.63;2.58;;;8.60;99.90;;;;;;5030147;28;20041;-66
2023/01/02 10:17:09;;;;;;;6.88;2.90;;;8.70;99.90;;;;;;5030195;28;20049;-66
2023/01/02 10:19:52;;;;;;;4.32;2.53;;;8.70;99.90;;;;;;5026932;28;20052;-65
2023/01/02 10:22:38;;;;;;;3.80;2.38;;;8.60;99.90;;;;;;5030673;28;20517;-66
2023/01/02 10:25:09;;;;;;;3.55;2.35;;;8.80;99.90;;;;;;5027777;28;20044;-65
2023/01/02 10:27:42;;;;;;;5.38;2.30;;;8.80;99.90;;;;;;5029183;28;20040;-65
2023/01/02 10:30:24;;;;;;;3.78;2.13;;;8.80;99.90;;;;;;5012179;28;20115;-66
2023/01/02 10:32:59;;;;;;;3.80;2.30;;;8.60;99.90;;;;;;5028634;28;20499;-66
2023/01/02 10:35:40;;;;;;;3.72;2.20;;;8.80;99.90;;;;;;5027746;28;20037;-65
2023/01/02 10:38:09;;;;;;;5.43;1.98;;;8.60;99.90;;;;;;5032147;28;20037;-66
2023/01/02 10:40:35;;;;;;;4.03;2.30;;;8.40;99.90;;;;;;5032534;28;20037;-65
2023/01/02 10:43:01;;;;;;;5.47;2.03;;;8.50;99.90;;;;;;5031043;28;20116;-66
2023/01/02 10:45:27;;;;;;;5.53;2.15;;;8.60;99.90;;;;;;5030007;28;20180;-66
2023/01/02 10:47:53;;;;;;;4.03;2.03;;;8.40;99.90;;;;;;5031835;28;20037;-66
2023/01/02 10:50:21;;;;;;;4.63;1.90;;;8.40;99.90;;;;;;5028014;28;20040;-66
2023/01/02 10:52:52;;;;;;;5.40;2.20;;;8.50;99.90;;;;;;5028735;28;20044;-67
2023/01/02 10:55:30;;;;;;;3.95;2.00;;;8.60;99.90;;;;;;5028691;28;20399;-66
2023/01/02 10:58:05;;;;;;;4.13;1.83;;;8.50;99.90;;;;;;5031876;28;20037;-66
2023/01/02 11:00:35;;;;;;;2.42;1.60;;;8.50;99.90;;;;;;5031856;28;20048;-66
2023/01/02 11:03:07;;;;;;;3.42;1.83;;;8.60;99.90;;;;;;5030204;28;20041;-66
2023/01/02 11:05:33;;;;;;;5.07;1.85;;;8.50;99.90;;;;;;5026967;28;20040;-66
2023/01/02 11:08:10;;;;;;;3.72;1.90;;;8.60;99.90;;;;;;5019207;28;20060;-66
2023/01/02 11:10:37;;;;;;;8.05;2.08;;;8.50;99.90;;;;;;5026368;28;20441;-67
2023/01/02 11:13:08;;;;;;;3.70;2.00;;;8.50;99.90;;;;;;5021930;28;20053;-65
2023/01/02 11:15:42;;;;;;;4.97;2.20;;;8.70;99.90;;;;;;5026687;28;20045;-66
2023/01/02 11:18:16;;;;;;;6.80;2.72;;;8.60;99.90;;;;;;5032151;28;20044;-66
2023/01/02 11:20:48;;;;;;;7.72;3.15;;;8.50;99.90;;;;;;5031425;28;20035;-65
2023/01/02 11:23:15;;;;;;;7.13;3.47;;;8.70;99.90;;;;;;5026613;28;20044;-66
2023/01/02 11:25:42;;;;;;;9.20;4.00;;;8.70;99.90;;;;;;5029389;28;20103;-65
2023/01/02 11:28:17;;;;;;;7.45;3.03;;;8.80;99.90;;;;;;5028701;28;20046;-66
2023/01/02 11:30:52;;;;;;;6.13;3.08;;;8.50;99.90;;;;;;5026829;28;20042;-65
2023/01/02 11:33:20;;;;;;;5.20;2.50;;;8.60;99.90;;;;;;5032536;28;20389;-66
2023/01/02 11:35:49;;;;;;;6.43;3.20;;;8.70;99.90;;;;;;5027173;28;20483;-66
2023/01/02 11:38:18;;;;;;;6.03;2.78;;;8.70;99.90;;;;;;5027022;28;20132;-66
2023/01/02 11:40:53;;;;;;;5.75;2.22;;;8.70;99.90;;;;;;5029780;28;20088;-66
2023/01/02 11:46:22;;;;;;;7.68;2.17;;;8.70;99.90;;;;;;5031735;28;20037;-65
2023/01/02 11:48:50;;;;;;;4.90;1.95;;;8.50;99.90;;;;;;5029126;28;20037;-66
2023/01/02 11:51:17;;;;;;;8.93;2.10;;;8.50;99.90;;;;;;5031251;28;20103;-66
2023/01/02 11:53:46;;;;;;;4.70;2.33;;;8.40;99.90;;;;;;5029237;28;20045;-66
2023/01/02 11:56:21;;;;;;;4.55;2.22;;;8.50;99.90;;;;;;5009866;28;20061;-66
2023/01/02 11:58:59;;;;;;;5.28;2.20;;;8.30;99.90;;;;;;5029416;28;20053;-66
2023/01/02 12:02:00;;;;;;;5.40;2.38;;;8.40;99.90;;;;;;5029717;28;20045;-66
2023/01/02 12:04:25;;;;;;;6.97;2.25;;;8.30;99.90;;;;;;4999032;28;20046;-65
2023/01/02 12:07:27;;;;;;;6.78;2.50;;;8.40;99.90;;;;;;5010977;28;20045;-66
2023/01/02 12:10:04;;;;;;;6.97;2.70;;;8.30;99.90;;;;;;5032120;28;20080;-66
2023/01/02 12:13:02;;;;;;;5.88;2.90;;;8.50;99.90;;;;;;5026484;28;20072;-65
2023/01/02 12:15:54;;;;;;;9.48;2.65;;;8.50;99.90;;;;;;5024637;28;20084;-65
2023/01/02 12:18:52;;;;;;;8.00;2.58;;;8.40;99.90;;;;;;5029199;28;20045;-66
2023/01/02 12:21:24;;;;;;;7.15;2.50;;;8.60;99.90;;;;;;5045831;28;20049;-65
2023/01/02 12:24:03;;;;;;;6.38;2.70;;;8.50;99.90;;;;;;5048737;28;20034;-66
2023/01/02 12:26:49;;;;;;;6.70;2.65;;;8.50;99.90;;;;;;5029441;28;20052;-66
2023/01/02 12:29:38;;;;;;;8.50;2.45;;;8.40;99.90;;;;;;5029174;28;20535;-66
2023/01/02 12:32:48;;;;;;;8.55;2.60;;;8.50;99.90;;;;;;5032999;28;20061;-66
2023/01/02 12:35:35;;;;;;;5.95;2.58;;;8.40;99.90;;;;;;5019964;28;20054;-66
2023/01/02 12:38:06;;;;;;;6.20;2.20;;;8.20;99.90;;;;;;5027140;28;20046;-67
2023/01/02 12:40:40;;;;;;;8.73;2.90;;;8.20;99.90;;;;;;5032144;28;20037;-66
2023/01/02 12:43:09;;;;;;;7.97;2.53;;;8.20;99.90;;;;;;5038472;28;20120;-66
2023/01/02 12:45:43;;;;;;;9.52;2.85;;;8.20;99.90;;;;;;5044233;28;20048;-67
2023/01/02 12:48:45;;;;;;;8.65;3.40;;;8.40;99.90;;;;;;5041528;28;20077;-66
2023/01/02 12:51:20;;;;;;;7.32;3.33;;;8.40;99.90;;;;;;5032602;28;20080;-66
2023/01/02 12:54:23;;;;;;;9.68;3.75;;;8.40;99.90;;;;;;5030346;28;20088;-65
2023/01/02 12:57:04;;;;;;;8.32;3.85;;;8.40;99.90;;;;;;5028939;28;20063;-67
2023/01/02 12:59:51;;;;;;;10.95;4.03;;;8.50;99.90;;;;;;5030353;28;20717;-66
2023/01/02 13:02:54;;;;;;;12.13;3.30;;;8.40;99.90;;;;;;5026090;28;20112;-66
2023/01/02 13:05:25;;;;;;;11.57;3.58;;;8.30;99.90;;;;;;5027285;28;20037;-67